sensor_id;sensor_type;location;lat;lon;timestamp;pressure;altitude;pressure_sealevel;temperature;humidity
44765;BME280;30484;52.382;5.260;2023-02-03T00:00:33;102475.44;;;11.82;100.00
44765;BME280;30484;52.382;5.260;2023-02-03T00:03:02;102473.16;;;11.68;100.00
44765;BME280;30484;52.382;5.260;2023-02-03T00:05:33;102477.66;;;11.99;100.00
44765;BME280;30484;52.382;5.260;2023-02-03T00:08:03;102480.03;;;11.77;100.00
44765;BME280;30484;52.382;5.260;2023-02-03T00:10:33;102482.63;;;11.80;100.00
44765;BME280;30484;52.382;5.260;2023-02-03T00:13:02;102486.25;;;11.79;100.00
44765;BME280;30484;52.382;5.260;2023-02-03T00:15:30;102480.03;;;11.77;100.00
44765;BME280;30484;52.382;5.260;2023-02-03T00:17:59;102487.09;;;11.79;100.00
44765;BME280;30484;52.382;5.260;2023-02-03T00:20:28;102493.81;;;11.94;100.00
44765;BME280;30484;52.382;5.260;2023-02-03T00:23:04;102492.19;;;11.88;100.00
44765;BME280;30484;52.382;5.260;2023-02-03T00:25:33;102497.81;;;11.79;100.00
44765;BME280;30484;52.382;5.260;2023-02-03T00:28:02;102508.44;;;11.82;100.00
44765;BME280;30484;52.382;5.260;2023-02-03T00:30:33;102499.91;;;12.01;100.00
44765;BME280;30484;52.382;5.260;2023-02-03T00:33:03;102500.69;;;11.73;100.00
44765;BME280;30484;52.382;5.260;2023-02-03T00:35:32;102509.88;;;11.63;100.00
44765;BME280;30484;52.382;5.260;2023-02-03T00:38:02;102504.94;;;11.80;100.00
44765;BME280;30484;52.382;5.260;2023-02-03T00:40:31;102512.56;;;11.96;100.00
44765;BME280;30484;52.382;5.260;2023-02-03T00:43:00;102506.19;;;11.67;100.00
44765;BME280;30484;52.382;5.260;2023-02-03T00:45:28;102494.28;;;11.77;100.00
44765;BME280;30484;52.382;5.260;2023-02-03T00:47:57;102482.53;;;12.14;100.00
44765;BME280;30484;52.382;5.260;2023-02-03T00:50:26;102478.47;;;12.01;100.00
44765;BME280;30484;52.382;5.260;2023-02-03T00:52:55;102469.22;;;12.11;100.00
44765;BME280;30484;52.382;5.260;2023-02-03T00:55:25;102466.59;;;11.78;100.00
44765;BME280;30484;52.382;5.260;2023-02-03T00:57:53;102463.66;;;11.87;100.00
44765;BME280;30484;52.382;5.260;2023-02-03T01:00:22;102462.78;;;11.55;100.00
44765;BME280;30484;52.382;5.260;2023-02-03T01:02:51;102464.19;;;11.69;100.00
44765;BME280;30484;52.382;5.260;2023-02-03T01:05:20;102469.13;;;11.51;100.00
44765;BME280;30484;52.382;5.260;2023-02-03T01:07:49;102482.00;;;12.03;100.00
44765;BME280;30484;52.382;5.260;2023-02-03T01:10:18;102461.91;;;11.86;100.00
44765;BME280;30484;52.382;5.260;2023-02-03T01:12:48;102466.41;;;11.54;100.00
44765;BME280;30484;52.382;5.260;2023-02-03T01:15:17;102465.41;;;11.88;100.00
44765;BME280;30484;52.382;5.260;2023-02-03T01:17:46;102438.63;;;11.88;100.00
44765;BME280;30484;52.382;5.260;2023-02-03T01:20:14;102445.41;;;11.70;100.00
44765;BME280;30484;52.382;5.260;2023-02-03T01:22:43;102441.28;;;11.90;100.00
44765;BME280;30484;52.382;5.260;2023-02-03T01:25:12;102455.13;;;11.74;100.00
44765;BME280;30484;52.382;5.260;2023-02-03T01:27:40;102438.63;;;11.88;100.00
44765;BME280;30484;52.382;5.260;2023-02-03T01:30:11;102440.94;;;11.71;100.00
44765;BME280;30484;52.382;5.260;2023-02-03T01:32:40;102439.53;;;11.57;100.00
44765;BME280;30484;52.382;5.260;2023-02-03T01:35:09;102445.94;;;11.83;100.00
44765;BME280;30484;52.382;5.260;2023-02-03T01:37:38;102444.16;;;11.82;100.00
44765;BME280;30484;52.382;5.260;2023-02-03T01:40:09;102440.47;;;11.86;100.00
44765;BME280;30484;52.382;5.260;2023-02-03T01:42:37;102436.47;;;11.70;100.00
44765;BME280;30484;52.382;5.260;2023-02-03T01:45:07;102450.63;;;12.06;100.00
44765;BME280;30484;52.382;5.260;2023-02-03T01:47:45;102442.78;;;11.69;100.00
44765;BME280;30484;52.382;5.260;2023-02-03T01:50:18;102420.72;;;11.90;100.00
44765;BME280;30484;52.382;5.260;2023-02-03T01:52:52;102405.44;;;11.94;100.00
44765;BME280;30484;52.382;5.260;2023-02-03T01:55:27;102412.22;;;11.76;100.00
44765;BME280;30484;52.382;5.260;2023-02-03T01:58:01;102405.91;;;11.77;100.00
44765;BME280;30484;52.382;5.260;2023-02-03T02:00:32;102414.94;;;11.74;100.00
44765;BME280;30484;52.382;5.260;2023-02-03T02:03:04;102418.72;;;11.99;100.00
44765;BME280;30484;52.382;5.260;2023-02-03T02:05:36;102430.75;;;12.14;100.00
44765;BME280;30484;52.382;5.260;2023-02-03T02:08:06;102424.09;;;12.25;100.00
44765;BME280;30484;52.382;5.260;2023-02-03T02:10:36;102422.22;;;12.01;100.00
44765;BME280;30484;52.382;5.260;2023-02-03T02:13:05;102423.00;;;12.04;100.00
44765;BME280;30484;52.382;5.260;2023-02-03T02:15:57;102410.47;;;12.05;100.00
44765;BME280;30484;52.382;5.260;2023-02-03T02:18:48;102403.13;;;12.12;100.00
44765;BME280;30484;52.382;5.260;2023-02-03T02:21:58;102403.72;;;11.91;100.00
44765;BME280;30484;52.382;5.260;2023-02-03T02:25:01;102421.69;;;11.88;100.00
44765;BME280;30484;52.382;5.260;2023-02-03T02:28:15;102412.09;;;12.11;100.00
44765;BME280;30484;52.382;5.260;2023-02-03T02:34:07;102391.81;;;12.02;100.00
44765;BME280;30484;52.382;5.260;2023-02-03T02:36:51;102396.88;;;11.81;100.00
44765;BME280;30484;52.382;5.260;2023-02-03T02:39:33;102383.16;;;12.22;100.00
44765;BME280;30484;52.382;5.260;2023-02-03T02:42:10;102389.44;;;11.91;100.00
44765;BME280;30484;52.382;5.260;2023-02-03T02:44:47;102384.19;;;11.88;100.00
44765;BME280;30484;52.382;5.260;2023-02-03T02:47:18;102383.09;;;11.95;100.00
44765;BME280;30484;52.382;5.260;2023-02-03T02:49:57;102389.09;;;12.03;100.00
44765;BME280;30484;52.382;5.260;2023-02-03T02:52:33;102375.34;;;11.86;100.00
44765;BME280;30484;52.382;5.260;2023-02-03T02:55:09;102371.38;;;11.99;100.00
44765;BME280;30484;52.382;5.260;2023-02-03T02:57:41;102386.81;;;11.89;100.00
44765;BME280;30484;52.382;5.260;2023-02-03T03:00:12;102386.56;;;11.99;100.00
44765;BME280;30484;52.382;5.260;2023-02-03T03:02:42;102392.53;;;12.08;100.00
44765;BME280;30484;52.382;5.260;2023-02-03T03:05:16;102406.06;;;11.72;100.00
44765;BME280;30484;52.382;5.260;2023-02-03T03:07:51;102405.66;;;12.16;100.00
44765;BME280;30484;52.382;5.260;2023-02-03T03:10:25;102405.59;;;11.88;100.00
44765;BME280;30484;52.382;5.260;2023-02-03T03:13:02;102399.56;;;11.81;100.00
44765;BME280;30484;52.382;5.260;2023-02-03T03:15:34;102404.00;;;11.82;100.00
44765;BME280;30484;52.382;5.260;2023-02-03T03:18:14;102405.66;;;11.86;100.00
44765;BME280;30484;52.382;5.260;2023-02-03T03:20:47;102401.22;;;12.15;100.00
44765;BME280;30484;52.382;5.260;2023-02-03T03:23:23;102414.38;;;11.93;100.00
44765;BME280;30484;52.382;5.260;2023-02-03T03:25:58;102392.94;;;11.95;100.00
44765;BME280;30484;52.382;5.260;2023-02-03T03:28:36;102417.28;;;12.15;100.00
44765;BME280;30484;52.382;5.260;2023-02-03T03:31:07;102403.84;;;11.87;100.00
44765;BME280;30484;52.382;5.260;2023-02-03T03:33:36;102396.91;;;12.38;100.00
44765;BME280;30484;52.382;5.260;2023-02-03T03:36:17;102389.38;;;11.92;100.00
44765;BME280;30484;52.382;5.260;2023-02-03T03:38:55;102392.47;;;11.80;100.00
44765;BME280;30484;52.382;5.260;2023-02-03T03:41:38;102389.53;;;11.88;100.00
44765;BME280;30484;52.382;5.260;2023-02-03T03:44:12;102396.00;;;12.11;100.00
44765;BME280;30484;52.382;5.260;2023-02-03T03:46:47;102406.34;;;11.95;100.00
44765;BME280;30484;52.382;5.260;2023-02-03T03:49:19;102398.78;;;11.78;100.00
44765;BME280;30484;52.382;5.260;2023-02-03T03:51:57;102402.19;;;12.13;100.00
44765;BME280;30484;52.382;5.260;2023-02-03T03:54:29;102389.63;;;12.15;100.00
44765;BME280;30484;52.382;5.260;2023-02-03T03:57:04;102384.75;;;11.99;100.00
44765;BME280;30484;52.382;5.260;2023-02-03T03:59:37;102400.63;;;12.05;100.00
44765;BME280;30484;52.382;5.260;2023-02-03T04:02:07;102401.69;;;12.00;100.00
44765;BME280;30484;52.382;5.260;2023-02-03T04:04:38;102416.66;;;12.07;100.00
44765;BME280;30484;52.382;5.260;2023-02-03T04:07:10;102405.88;;;12.10;100.00
44765;BME280;30484;52.382;5.260;2023-02-03T04:09:40;102421.16;;;11.75;100.00
44765;BME280;30484;52.382;5.260;2023-02-03T04:12:20;102426.06;;;11.90;100.00
44765;BME280;30484;52.382;5.260;2023-02-03T04:14:49;102413.41;;;11.97;100.00
44765;BME280;30484;52.382;5.260;2023-02-03T04:17:19;102420.22;;;11.78;100.00
44765;BME280;30484;52.382;5.260;2023-02-03T04:19:49;102418.03;;;11.90;100.00
44765;BME280;30484;52.382;5.260;2023-02-03T04:22:19;102421.44;;;11.97;100.00
44765;BME280;30484;52.382;5.260;2023-02-03T04:24:48;102410.47;;;12.05;100.00
44765;BME280;30484;52.382;5.260;2023-02-03T04:27:17;102418.63;;;12.02;100.00
44765;BME280;30484;52.382;5.260;2023-02-03T04:29:47;102403.25;;;12.07;100.00
44765;BME280;30484;52.382;5.260;2023-02-03T04:32:17;102410.56;;;12.02;100.00
44765;BME280;30484;52.382;5.260;2023-02-03T04:34:46;102412.47;;;11.98;100.00
44765;BME280;30484;52.382;5.260;2023-02-03T04:37:15;102410.19;;;12.14;100.00
44765;BME280;30484;52.382;5.260;2023-02-03T04:39:45;102407.00;;;12.01;100.00
44765;BME280;30484;52.382;5.260;2023-02-03T04:42:15;102400.28;;;12.16;100.00
44765;BME280;30484;52.382;5.260;2023-02-03T04:44:44;102402.31;;;11.78;100.00
44765;BME280;30484;52.382;5.260;2023-02-03T04:47:14;102392.38;;;11.83;100.00
44765;BME280;30484;52.382;5.260;2023-02-03T04:49:43;102397.28;;;11.99;100.00
44765;BME280;30484;52.382;5.260;2023-02-03T04:52:12;102386.91;;;12.16;100.00
44765;BME280;30484;52.382;5.260;2023-02-03T04:54:41;102394.19;;;12.11;100.00
44765;BME280;30484;52.382;5.260;2023-02-03T04:57:11;102383.00;;;11.98;100.00
44765;BME280;30484;52.382;5.260;2023-02-03T04:59:40;102389.44;;;11.91;100.00
44765;BME280;30484;52.382;5.260;2023-02-03T05:02:09;102389.84;;;12.07;100.00
44765;BME280;30484;52.382;5.260;2023-02-03T05:04:38;102386.56;;;11.99;100.00
44765;BME280;30484;52.382;5.260;2023-02-03T05:07:08;102392.53;;;12.07;100.00
44765;BME280;30484;52.382;5.260;2023-02-03T05:09:36;102403.66;;;12.23;100.00
44765;BME280;30484;52.382;5.260;2023-02-03T05:12:06;102420.31;;;12.04;100.00
44765;BME280;30484;52.382;5.260;2023-02-03T05:14:36;102425.44;;;12.12;100.00
44765;BME280;30484;52.382;5.260;2023-02-03T05:17:04;102414.81;;;12.09;100.00
44765;BME280;30484;52.382;5.260;2023-02-03T05:19:32;102412.94;;;12.39;100.00
44765;BME280;30484;52.382;5.260;2023-02-03T05:22:07;102398.31;;;11.95;100.00
44765;BME280;30484;52.382;5.260;2023-02-03T05:24:51;102410.91;;;12.19;100.00
44765;BME280;30484;52.382;5.260;2023-02-03T05:27:31;102393.06;;;11.90;100.00
44765;BME280;30484;52.382;5.260;2023-02-03T05:30:01;102398.44;;;12.18;100.00
44765;BME280;30484;52.382;5.260;2023-02-03T05:32:31;102401.25;;;11.84;100.00
44765;BME280;30484;52.382;5.260;2023-02-03T05:35:00;102415.31;;;11.92;100.00
44765;BME280;30484;52.382;5.260;2023-02-03T05:37:30;102416.03;;;11.99;100.00
44765;BME280;30484;52.382;5.260;2023-02-03T05:39:59;102423.75;;;11.78;100.00
44765;BME280;30484;52.382;5.260;2023-02-03T05:42:46;102416.16;;;11.94;100.00
44765;BME280;30484;52.382;5.260;2023-02-03T05:45:18;102420.06;;;12.12;100.00
44765;BME280;30484;52.382;5.260;2023-02-03T05:47:46;102419.22;;;12.12;100.00
44765;BME280;30484;52.382;5.260;2023-02-03T05:50:15;102420.91;;;11.84;100.00
44765;BME280;30484;52.382;5.260;2023-02-03T05:52:44;102417.25;;;12.17;100.00
44765;BME280;30484;52.382;5.260;2023-02-03T05:55:13;102411.84;;;11.88;100.00
44765;BME280;30484;52.382;5.260;2023-02-03T05:57:41;102408.53;;;11.80;100.00
44765;BME280;30484;52.382;5.260;2023-02-03T06:00:12;102420.28;;;12.06;100.00
44765;BME280;30484;52.382;5.260;2023-02-03T06:02:42;102415.34;;;11.90;100.00
44765;BME280;30484;52.382;5.260;2023-02-03T06:05:11;102423.88;;;12.05;100.00
44765;BME280;30484;52.382;5.260;2023-02-03T06:07:39;102418.59;;;11.72;100.00
44765;BME280;30484;52.382;5.260;2023-02-03T06:10:10;102409.34;;;11.82;100.00
44765;BME280;30484;52.382;5.260;2023-02-03T06:12:39;102422.75;;;11.82;100.00
44765;BME280;30484;52.382;5.260;2023-02-03T06:15:12;102429.56;;;11.92;100.00
44765;BME280;30484;52.382;5.260;2023-02-03T06:17:44;102428.53;;;11.98;100.00
44765;BME280;30484;52.382;5.260;2023-02-03T06:20:16;102431.63;;;11.84;100.00
44765;BME280;30484;52.382;5.260;2023-02-03T06:22:45;102433.13;;;11.93;100.00
44765;BME280;30484;52.382;5.260;2023-02-03T06:25:15;102438.38;;;11.98;100.00
44765;BME280;30484;52.382;5.260;2023-02-03T06:27:44;102442.06;;;11.94;100.00
44765;BME280;30484;52.382;5.260;2023-02-03T06:30:15;102439.50;;;11.89;100.00
44765;BME280;30484;52.382;5.260;2023-02-03T06:32:46;102445.00;;;11.84;100.00
44765;BME280;30484;52.382;5.260;2023-02-03T06:35:19;102431.97;;;11.72;100.00
44765;BME280;30484;52.382;5.260;2023-02-03T06:37:49;102443.59;;;11.71;100.00
44765;BME280;30484;52.382;5.260;2023-02-03T06:40:18;102452.78;;;11.62;100.00
44765;BME280;30484;52.382;5.260;2023-02-03T06:42:47;102442.06;;;11.62;100.00
44765;BME280;30484;52.382;5.260;2023-02-03T06:45:17;102462.25;;;11.74;100.00
44765;BME280;30484;52.382;5.260;2023-02-03T06:47:48;102461.81;;;11.89;100.00
44765;BME280;30484;52.382;5.260;2023-02-03T06:50:17;102463.66;;;11.87;100.00
44765;BME280;30484;52.382;5.260;2023-02-03T06:52:48;102466.19;;;11.94;100.00
44765;BME280;30484;52.382;5.260;2023-02-03T06:55:17;102467.06;;;11.92;100.00
44765;BME280;30484;52.382;5.260;2023-02-03T06:57:48;102453.53;;;11.99;100.00
44765;BME280;30484;52.382;5.260;2023-02-03T07:00:18;102465.34;;;11.60;100.00
44765;BME280;30484;52.382;5.260;2023-02-03T07:02:54;102457.50;;;11.84;100.00
44765;BME280;30484;52.382;5.260;2023-02-03T07:05:25;102468.03;;;11.60;100.00
44765;BME280;30484;52.382;5.260;2023-02-03T07:07:54;102473.63;;;11.82;100.00
44765;BME280;30484;52.382;5.260;2023-02-03T07:10:23;102465.06;;;11.69;100.00
44765;BME280;30484;52.382;5.260;2023-02-03T07:12:52;102456.25;;;11.66;100.00
44765;BME280;30484;52.382;5.260;2023-02-03T07:15:21;102451.44;;;11.79;100.00
44765;BME280;30484;52.382;5.260;2023-02-03T07:17:49;102460.88;;;11.90;100.00
44765;BME280;30484;52.382;5.260;2023-02-03T07:20:24;102452.84;;;11.90;100.00
44765;BME280;30484;52.382;5.260;2023-02-03T07:22:56;102456.13;;;11.70;100.00
44765;BME280;30484;52.382;5.260;2023-02-03T07:25:25;102456.75;;;11.80;100.00
44765;BME280;30484;52.382;5.260;2023-02-03T07:27:54;102454.69;;;11.88;100.00
44765;BME280;30484;52.382;5.260;2023-02-03T07:30:22;102461.44;;;11.72;100.00
44765;BME280;30484;52.382;5.260;2023-02-03T07:32:52;102449.44;;;11.85;100.00
44765;BME280;30484;52.382;5.260;2023-02-03T07:35:23;102459.03;;;11.92;100.00
44765;BME280;30484;52.382;5.260;2023-02-03T07:37:53;102454.25;;;12.04;100.00
44765;BME280;30484;52.382;5.260;2023-02-03T07:40:25;102464.09;;;11.72;100.00
44765;BME280;30484;52.382;5.260;2023-02-03T07:42:54;102465.25;;;11.95;100.00
44765;BME280;30484;52.382;5.260;2023-02-03T07:45:23;102471.03;;;11.79;100.00
44765;BME280;30484;52.382;5.260;2023-02-03T07:47:51;102471.78;;;11.84;100.00
44765;BME280;30484;52.382;5.260;2023-02-03T07:50:22;102482.56;;;11.81;100.00
44765;BME280;30484;52.382;5.260;2023-02-03T07:52:51;102489.09;;;12.04;100.00
44765;BME280;30484;52.382;5.260;2023-02-03T07:55:19;102494.56;;;11.68;100.00
44765;BME280;30484;52.382;5.260;2023-02-03T07:57:48;102487.06;;;12.12;100.00
44765;BME280;30484;52.382;5.260;2023-02-03T08:00:18;102509.50;;;12.08;100.00
44765;BME280;30484;52.382;5.260;2023-02-03T08:02:46;102513.25;;;12.32;100.00
44765;BME280;30484;52.382;5.260;2023-02-03T08:05:16;102505.34;;;11.98;100.00
44765;BME280;30484;52.382;5.260;2023-02-03T08:07:47;102508.19;;;11.91;100.00
44765;BME280;30484;52.382;5.260;2023-02-03T08:10:16;102520.47;;;12.00;100.00
44765;BME280;30484;52.382;5.260;2023-02-03T08:12:45;102520.41;;;12.02;100.00
44765;BME280;30484;52.382;5.260;2023-02-03T08:15:14;102527.97;;;12.47;100.00
44765;BME280;30484;52.382;5.260;2023-02-03T08:17:44;102503.59;;;12.26;100.00
44765;BME280;30484;52.382;5.260;2023-02-03T08:20:12;102520.97;;;12.43;100.00
44765;BME280;30484;52.382;5.260;2023-02-03T08:22:43;102529.00;;;12.43;100.00
44765;BME280;30484;52.382;5.260;2023-02-03T08:25:14;102541.50;;;12.14;100.00
44765;BME280;30484;52.382;5.260;2023-02-03T08:27:43;102525.47;;;12.41;100.00
44765;BME280;30484;52.382;5.260;2023-02-03T08:30:12;102528.25;;;12.38;100.00
44765;BME280;30484;52.382;5.260;2023-02-03T08:32:41;102536.78;;;12.51;100.00
44765;BME280;30484;52.382;5.260;2023-02-03T08:35:11;102553.63;;;12.56;100.00
44765;BME280;30484;52.382;5.260;2023-02-03T08:37:40;102546.66;;;12.50;100.00
44765;BME280;30484;52.382;5.260;2023-02-03T08:40:10;102541.56;;;12.11;100.00
44765;BME280;30484;52.382;5.260;2023-02-03T08:42:41;102554.59;;;12.53;100.00
44765;BME280;30484;52.382;5.260;2023-02-03T08:45:10;102532.44;;;12.47;100.00
44765;BME280;30484;52.382;5.260;2023-02-03T08:47:39;102530.47;;;12.23;100.00
44765;BME280;30484;52.382;5.260;2023-02-03T08:50:10;102541.34;;;12.19;100.00
44765;BME280;30484;52.382;5.260;2023-02-03T08:52:39;102555.56;;;12.51;100.00
44765;BME280;30484;52.382;5.260;2023-02-03T08:55:08;102546.69;;;12.49;100.00
44765;BME280;30484;52.382;5.260;2023-02-03T08:57:39;102554.50;;;12.56;100.00
44765;BME280;30484;52.382;5.260;2023-02-03T09:00:10;102560.28;;;12.71;100.00
44765;BME280;30484;52.382;5.260;2023-02-03T09:02:40;102561.16;;;12.43;100.00
44765;BME280;30484;52.382;5.260;2023-02-03T09:05:10;102563.28;;;12.62;100.00
44765;BME280;30484;52.382;5.260;2023-02-03T09:07:42;102563.56;;;12.52;100.00
44765;BME280;30484;52.382;5.260;2023-02-03T09:10:11;102573.91;;;12.65;100.00
44765;BME280;30484;52.382;5.260;2023-02-03T09:12:41;102561.91;;;12.76;100.00
44765;BME280;30484;52.382;5.260;2023-02-03T09:15:10;102575.38;;;12.75;100.00
44765;BME280;30484;52.382;5.260;2023-02-03T09:17:41;102566.31;;;12.49;100.00
44765;BME280;30484;52.382;5.260;2023-02-03T09:20:24;102573.53;;;12.77;100.00
44765;BME280;30484;52.382;5.260;2023-02-03T09:22:54;102575.09;;;12.84;100.00
44765;BME280;30484;52.382;5.260;2023-02-03T09:25:25;102574.88;;;12.90;100.00
44765;BME280;30484;52.382;5.260;2023-02-03T09:27:55;102559.56;;;12.94;100.00
44765;BME280;30484;52.382;5.260;2023-02-03T09:30:24;102583.19;;;12.81;100.00
44765;BME280;30484;52.382;5.260;2023-02-03T09:32:54;102575.25;;;12.78;100.00
44765;BME280;30484;52.382;5.260;2023-02-03T09:35:23;102586.03;;;12.76;100.00
44765;BME280;30484;52.382;5.260;2023-02-03T09:37:53;102586.34;;;12.67;100.00
44765;BME280;30484;52.382;5.260;2023-02-03T09:40:25;102589.19;;;12.61;100.00
44765;BME280;30484;52.382;5.260;2023-02-03T09:43:17;102581.56;;;12.77;100.00
44765;BME280;30484;52.382;5.260;2023-02-03T09:54:34;102591.03;;;12.89;100.00
44765;BME280;30484;52.382;5.260;2023-02-03T09:57:11;102594.69;;;12.86;100.00
44765;BME280;30484;52.382;5.260;2023-02-03T09:59:43;102598.88;;;12.95;100.00
44765;BME280;30484;52.382;5.260;2023-02-03T10:02:39;102595.25;;;12.96;100.00
44765;BME280;30484;52.382;5.260;2023-02-03T10:05:21;102585.94;;;12.80;100.00
44765;BME280;30484;52.382;5.260;2023-02-03T10:08:03;102590.47;;;12.49;100.00
44765;BME280;30484;52.382;5.260;2023-02-03T10:10:39;102597.22;;;12.91;100.00
44765;BME280;30484;52.382;5.260;2023-02-03T10:13:19;102615.34;;;12.54;100.00
44765;BME280;30484;52.382;5.260;2023-02-03T10:16:17;102601.13;;;12.81;100.00
44765;BME280;30484;52.382;5.260;2023-02-03T10:18:52;102622.41;;;12.85;100.00
44765;BME280;30484;52.382;5.260;2023-02-03T10:21:33;102619.16;;;13.04;100.00
44765;BME280;30484;52.382;5.260;2023-02-03T10:24:23;102618.13;;;12.51;100.00
44765;BME280;30484;52.382;5.260;2023-02-03T10:26:53;102618.78;;;12.58;100.00
44765;BME280;30484;52.382;5.260;2023-02-03T10:29:38;102633.66;;;12.70;100.00
44765;BME280;30484;52.382;5.260;2023-02-03T10:32:12;102638.25;;;12.65;100.00
44765;BME280;30484;52.382;5.260;2023-02-03T10:34:44;102650.34;;;12.78;100.00
44765;BME280;30484;52.382;5.260;2023-02-03T10:37:26;102645.09;;;12.75;100.00
44765;BME280;30484;52.382;5.260;2023-02-03T10:39:59;102641.19;;;12.55;100.00
44765;BME280;30484;52.382;5.260;2023-02-03T10:42:29;102643.50;;;12.98;100.00
44765;BME280;30484;52.382;5.260;2023-02-03T10:45:20;102652.78;;;12.87;100.00
44765;BME280;30484;52.382;5.260;2023-02-03T10:47:51;102659.41;;;13.04;100.00
44765;BME280;30484;52.382;5.260;2023-02-03T10:50:24;102664.16;;;12.95;100.00
44765;BME280;30484;52.382;5.260;2023-02-03T10:53:21;102660.63;;;13.22;100.00
44765;BME280;30484;52.382;5.260;2023-02-03T10:56:01;102651.53;;;12.69;100.00
44765;BME280;30484;52.382;5.260;2023-02-03T10:58:31;102665.53;;;12.79;100.00
44765;BME280;30484;52.382;5.260;2023-02-03T11:01:09;102656.47;;;12.83;100.00
44765;BME280;30484;52.382;5.260;2023-02-03T11:03:42;102662.50;;;12.91;100.00
44765;BME280;30484;52.382;5.260;2023-02-03T11:06:14;102662.84;;;12.79;100.00
44765;BME280;30484;52.382;5.260;2023-02-03T11:08:46;102662.84;;;12.79;100.00
44765;BME280;30484;52.382;5.260;2023-02-03T11:11:21;102674.38;;;13.11;100.00
44765;BME280;30484;52.382;5.260;2023-02-03T11:14:09;102662.19;;;13.01;100.00
44765;BME280;30484;52.382;5.260;2023-02-03T11:16:39;102673.81;;;13.01;100.00
44765;BME280;30484;52.382;5.260;2023-02-03T11:19:15;102664.44;;;12.86;100.00
44765;BME280;30484;52.382;5.260;2023-02-03T11:21:48;102674.94;;;12.92;100.00
44765;BME280;30484;52.382;5.260;2023-02-03T11:24:20;102679.78;;;12.81;100.00
44765;BME280;30484;52.382;5.260;2023-02-03T11:26:53;102693.63;;;12.97;100.00
44765;BME280;30484;52.382;5.260;2023-02-03T11:29:25;102683.84;;;12.65;100.00
44765;BME280;30484;52.382;5.260;2023-02-03T11:31:57;102681.94;;;12.70;100.00
44765;BME280;30484;52.382;5.260;2023-02-03T11:34:31;102682.38;;;12.84;100.00
44765;BME280;30484;52.382;5.260;2023-02-03T11:37:25;102694.94;;;12.82;100.00
44765;BME280;30484;52.382;5.260;2023-02-03T11:40:26;102697.44;;;12.58;100.00
44765;BME280;30484;52.382;5.260;2023-02-03T11:43:03;102690.09;;;12.34;100.00
44765;BME280;30484;52.382;5.260;2023-02-03T11:45:38;102699.09;;;12.31;100.00
44765;BME280;30484;52.382;5.260;2023-02-03T11:48:25;102702.53;;;12.68;100.00
44765;BME280;30484;52.382;5.260;2023-02-03T11:51:03;102706.84;;;12.73;100.00
44765;BME280;30484;52.382;5.260;2023-02-03T11:54:01;102709.56;;;12.40;100.00
44765;BME280;30484;52.382;5.260;2023-02-03T11:57:01;102714.56;;;12.20;100.00
44765;BME280;30484;52.382;5.260;2023-02-03T11:59:59;102719.25;;;12.46;100.00
44765;BME280;30484;52.382;5.260;2023-02-03T12:02:39;102715.88;;;12.05;100.00
44765;BME280;30484;52.382;5.260;2023-02-03T12:05:36;102712.25;;;12.07;100.00
44765;BME280;30484;52.382;5.260;2023-02-03T12:08:23;102714.28;;;11.98;100.00
44765;BME280;30484;52.382;5.260;2023-02-03T12:11:08;102714.72;;;12.15;100.00
44765;BME280;30484;52.382;5.260;2023-02-03T12:14:02;102720.25;;;12.09;100.00
44765;BME280;30484;52.382;5.260;2023-02-03T12:20:00;102709.19;;;12.54;100.00
44765;BME280;30484;52.382;5.260;2023-02-03T12:22:35;102723.00;;;12.39;100.00
44765;BME280;30484;52.382;5.260;2023-02-03T12:25:30;102709.00;;;12.60;100.00
44765;BME280;30484;52.382;5.260;2023-02-03T12:28:12;102699.19;;;12.59;100.00
44765;BME280;30484;52.382;5.260;2023-02-03T12:31:06;102716.53;;;12.15;100.00
44765;BME280;30484;52.382;5.260;2023-02-03T12:33:42;102724.09;;;12.32;100.00
44765;BME280;30484;52.382;5.260;2023-02-03T12:36:18;102731.50;;;12.55;100.00
44765;BME280;30484;52.382;5.260;2023-02-03T12:38:51;102738.69;;;12.20;100.00
44765;BME280;30484;52.382;5.260;2023-02-03T12:41:25;102736.50;;;12.36;100.00
44765;BME280;30484;52.382;5.260;2023-02-03T12:44:00;102749.50;;;12.50;100.00
44765;BME280;30484;52.382;5.260;2023-02-03T12:46:39;102753.97;;;12.82;100.00
44765;BME280;30484;52.382;5.260;2023-02-03T12:49:15;102764.41;;;12.62;100.00
44765;BME280;30484;52.382;5.260;2023-02-03T12:51:52;102766.50;;;12.82;100.00
44765;BME280;30484;52.382;5.260;2023-02-03T12:55:11;102772.00;;;12.44;100.00
44765;BME280;30484;52.382;5.260;2023-02-03T12:57:51;102769.44;;;12.72;100.00
44765;BME280;30484;52.382;5.260;2023-02-03T13:01:19;102768.84;;;12.61;100.00
44765;BME280;30484;52.382;5.260;2023-02-03T13:05:55;102768.03;;;12.59;100.00
44765;BME280;30484;52.382;5.260;2023-02-03T13:08:17;102771.72;;;12.86;100.00
44765;BME280;30484;52.382;5.260;2023-02-03T13:19:07;102788.25;;;12.38;100.00
44765;BME280;30484;52.382;5.260;2023-02-03T13:21:58;102780.69;;;12.85;100.00
44765;BME280;30484;52.382;5.260;2023-02-03T13:24:35;102788.69;;;12.88;100.00
44765;BME280;30484;52.382;5.260;2023-02-03T13:27:30;102788.44;;;12.65;100.00
44765;BME280;30484;52.382;5.260;2023-02-03T13:30:41;102793.22;;;12.53;100.00
44765;BME280;30484;52.382;5.260;2023-02-03T13:33:57;102778.22;;;12.46;100.00
44765;BME280;30484;52.382;5.260;2023-02-03T13:37:15;102781.31;;;12.31;100.00
44765;BME280;30484;52.382;5.260;2023-02-03T13:40:18;102785.41;;;13.08;100.00
44765;BME280;30484;52.382;5.260;2023-02-03T13:42:55;102794.38;;;12.43;100.00